sensor_id;sensor_type;location;lat;lon;timestamp;P1;durP1;ratioP1;P2;durP2;ratioP2
5965;SDS011;3009;43.224;27.976;2023-08-30T00:01:58;17.43;;;14.97;;
5965;SDS011;3009;43.224;27.976;2023-08-30T00:04:26;17.60;;;15.83;;
5965;SDS011;3009;43.224;27.976;2023-08-30T00:06:55;20.20;;;15.50;;
5965;SDS011;3009;43.224;27.976;2023-08-30T00:09:23;17.13;;;15.33;;
5965;SDS011;3009;43.224;27.976;2023-08-30T00:11:52;17.50;;;15.90;;
5965;SDS011;3009;43.224;27.976;2023-08-30T00:14:20;17.93;;;16.03;;
5965;SDS011;3009;43.224;27.976;2023-08-30T00:16:48;18.73;;;15.67;;
5965;SDS011;3009;43.224;27.976;2023-08-30T00:19:18;17.60;;;15.70;;
5965;SDS011;3009;43.224;27.976;2023-08-30T00:21:47;18.97;;;16.97;;
5965;SDS011;3009;43.224;27.976;2023-08-30T00:24:15;16.93;;;15.23;;
5965;SDS011;3009;43.224;27.976;2023-08-30T00:26:44;18.57;;;16.13;;
5965;SDS011;3009;43.224;27.976;2023-08-30T00:29:12;17.77;;;15.97;;
5965;SDS011;3009;43.224;27.976;2023-08-30T00:31:41;17.77;;;16.03;;
5965;SDS011;3009;43.224;27.976;2023-08-30T00:34:09;19.07;;;16.83;;
5965;SDS011;3009;43.224;27.976;2023-08-30T00:36:39;16.50;;;14.90;;
5965;SDS011;3009;43.224;27.976;2023-08-30T00:39:07;18.70;;;16.37;;
5965;SDS011;3009;43.224;27.976;2023-08-30T00:41:36;21.27;;;15.93;;
5965;SDS011;3009;43.224;27.976;2023-08-30T00:44:04;17.87;;;15.93;;
5965;SDS011;3009;43.224;27.976;2023-08-30T00:46:33;22.53;;;16.47;;
5965;SDS011;3009;43.224;27.976;2023-08-30T00:49:01;18.93;;;17.17;;
5965;SDS011;3009;43.224;27.976;2023-08-30T00:51:31;18.97;;;17.03;;
5965;SDS011;3009;43.224;27.976;2023-08-30T00:54:01;17.00;;;15.50;;
5965;SDS011;3009;43.224;27.976;2023-08-30T00:56:30;19.63;;;17.60;;
5965;SDS011;3009;43.224;27.976;2023-08-30T00:58:59;18.30;;;16.53;;
5965;SDS011;3009;43.224;27.976;2023-08-30T01:01:28;17.63;;;15.77;;
5965;SDS011;3009;43.224;27.976;2023-08-30T01:03:56;17.97;;;16.20;;
5965;SDS011;3009;43.224;27.976;2023-08-30T01:06:25;22.53;;;18.00;;
5965;SDS011;3009;43.224;27.976;2023-08-30T01:08:54;20.17;;;16.33;;
5965;SDS011;3009;43.224;27.976;2023-08-30T01:11:26;16.13;;;14.60;;
5965;SDS011;3009;43.224;27.976;2023-08-30T01:14:01;16.40;;;14.67;;
5965;SDS011;3009;43.224;27.976;2023-08-30T01:16:34;18.20;;;15.87;;
5965;SDS011;3009;43.224;27.976;2023-08-30T01:19:05;21.40;;;16.00;;
5965;SDS011;3009;43.224;27.976;2023-08-30T01:21:48;23.77;;;16.03;;
5965;SDS011;3009;43.224;27.976;2023-08-30T01:24:32;18.30;;;15.50;;
5965;SDS011;3009;43.224;27.976;2023-08-30T01:27:11;18.33;;;16.60;;
5965;SDS011;3009;43.224;27.976;2023-08-30T01:29:42;21.73;;;15.93;;
5965;SDS011;3009;43.224;27.976;2023-08-30T01:32:13;18.13;;;16.43;;
5965;SDS011;3009;43.224;27.976;2023-08-30T01:34:43;18.40;;;15.40;;
5965;SDS011;3009;43.224;27.976;2023-08-30T01:37:13;19.03;;;17.10;;
5965;SDS011;3009;43.224;27.976;2023-08-30T01:39:43;16.97;;;15.47;;
5965;SDS011;3009;43.224;27.976;2023-08-30T01:42:13;21.00;;;15.80;;
5965;SDS011;3009;43.224;27.976;2023-08-30T01:44:48;17.60;;;15.90;;
5965;SDS011;3009;43.224;27.976;2023-08-30T01:47:18;18.10;;;14.70;;
5965;SDS011;3009;43.224;27.976;2023-08-30T01:49:47;21.13;;;15.13;;
5965;SDS011;3009;43.224;27.976;2023-08-30T01:52:16;17.30;;;15.60;;
5965;SDS011;3009;43.224;27.976;2023-08-30T01:54:45;20.60;;;15.23;;
5965;SDS011;3009;43.224;27.976;2023-08-30T01:57:17;21.40;;;16.57;;
5965;SDS011;3009;43.224;27.976;2023-08-30T01:59:45;17.23;;;15.50;;
5965;SDS011;3009;43.224;27.976;2023-08-30T02:02:14;16.70;;;15.20;;
5965;SDS011;3009;43.224;27.976;2023-08-30T02:04:42;17.07;;;15.37;;
5965;SDS011;3009;43.224;27.976;2023-08-30T02:07:12;16.43;;;14.77;;
5965;SDS011;3009;43.224;27.976;2023-08-30T02:09:45;18.87;;;15.40;;
5965;SDS011;3009;43.224;27.976;2023-08-30T02:12:19;16.33;;;14.63;;
5965;SDS011;3009;43.224;27.976;2023-08-30T02:14:52;16.97;;;13.93;;
5965;SDS011;3009;43.224;27.976;2023-08-30T02:17:23;18.63;;;14.30;;
5965;SDS011;3009;43.224;27.976;2023-08-30T02:19:52;16.70;;;15.00;;
5965;SDS011;3009;43.224;27.976;2023-08-30T02:22:20;16.53;;;14.73;;
5965;SDS011;3009;43.224;27.976;2023-08-30T02:24:49;17.33;;;15.10;;
5965;SDS011;3009;43.224;27.976;2023-08-30T02:27:17;22.77;;;15.50;;
5965;SDS011;3009;43.224;27.976;2023-08-30T02:29:48;17.37;;;15.30;;
5965;SDS011;3009;43.224;27.976;2023-08-30T02:32:17;17.33;;;14.80;;
5965;SDS011;3009;43.224;27.976;2023-08-30T02:34:49;19.80;;;15.77;;
5965;SDS011;3009;43.224;27.976;2023-08-30T02:37:19;16.03;;;14.47;;
5965;SDS011;3009;43.224;27.976;2023-08-30T02:39:47;15.67;;;14.10;;
5965;SDS011;3009;43.224;27.976;2023-08-30T02:42:16;20.17;;;14.77;;
5965;SDS011;3009;43.224;27.976;2023-08-30T02:44:44;16.70;;;15.10;;
5965;SDS011;3009;43.224;27.976;2023-08-30T02:47:14;24.13;;;14.90;;
5965;SDS011;3009;43.224;27.976;2023-08-30T02:49:43;17.93;;;15.10;;
5965;SDS011;3009;43.224;27.976;2023-08-30T02:52:11;15.87;;;14.30;;
5965;SDS011;3009;43.224;27.976;2023-08-30T02:54:40;24.57;;;16.43;;
5965;SDS011;3009;43.224;27.976;2023-08-30T02:57:08;22.70;;;16.33;;
5965;SDS011;3009;43.224;27.976;2023-08-30T02:59:37;17.53;;;15.83;;
5965;SDS011;3009;43.224;27.976;2023-08-30T03:02:05;21.30;;;15.83;;
5965;SDS011;3009;43.224;27.976;2023-08-30T03:04:35;18.10;;;15.83;;
5965;SDS011;3009;43.224;27.976;2023-08-30T03:07:05;26.03;;;16.10;;
5965;SDS011;3009;43.224;27.976;2023-08-30T03:09:33;18.77;;;16.83;;
5965;SDS011;3009;43.224;27.976;2023-08-30T03:12:02;17.87;;;16.10;;
5965;SDS011;3009;43.224;27.976;2023-08-30T03:14:31;18.60;;;15.80;;
5965;SDS011;3009;43.224;27.976;2023-08-30T03:17:00;20.17;;;17.03;;
5965;SDS011;3009;43.224;27.976;2023-08-30T03:19:28;25.73;;;16.50;;
5965;SDS011;3009;43.224;27.976;2023-08-30T03:21:58;20.43;;;16.00;;
5965;SDS011;3009;43.224;27.976;2023-08-30T03:24:26;20.40;;;16.50;;
5965;SDS011;3009;43.224;27.976;2023-08-30T03:26:55;17.50;;;15.00;;
5965;SDS011;3009;43.224;27.976;2023-08-30T03:29:23;17.30;;;15.10;;
5965;SDS011;3009;43.224;27.976;2023-08-30T03:31:55;22.43;;;15.37;;
5965;SDS011;3009;43.224;27.976;2023-08-30T03:34:29;18.97;;;16.23;;
5965;SDS011;3009;43.224;27.976;2023-08-30T03:36:59;18.90;;;16.20;;
5965;SDS011;3009;43.224;27.976;2023-08-30T03:39:27;24.27;;;15.70;;
5965;SDS011;3009;43.224;27.976;2023-08-30T03:41:56;18.13;;;16.10;;
5965;SDS011;3009;43.224;27.976;2023-08-30T03:44:24;18.80;;;16.97;;
5965;SDS011;3009;43.224;27.976;2023-08-30T03:46:52;22.63;;;16.17;;
5965;SDS011;3009;43.224;27.976;2023-08-30T03:49:23;18.43;;;16.63;;
5965;SDS011;3009;43.224;27.976;2023-08-30T03:51:51;18.20;;;14.80;;
5965;SDS011;3009;43.224;27.976;2023-08-30T03:54:21;22.83;;;16.17;;
5965;SDS011;3009;43.224;27.976;2023-08-30T03:56:50;15.93;;;14.33;;
5965;SDS011;3009;43.224;27.976;2023-08-30T03:59:18;27.87;;;14.90;;
5965;SDS011;3009;43.224;27.976;2023-08-30T04:01:52;19.07;;;15.30;;
5965;SDS011;3009;43.224;27.976;2023-08-30T04:04:21;17.27;;;15.53;;
5965;SDS011;3009;43.224;27.976;2023-08-30T04:06:50;17.10;;;15.43;;
5965;SDS011;3009;43.224;27.976;2023-08-30T04:09:18;17.53;;;14.17;;
5965;SDS011;3009;43.224;27.976;2023-08-30T04:11:48;17.77;;;15.00;;
5965;SDS011;3009;43.224;27.976;2023-08-30T04:14:17;17.53;;;15.60;;
5965;SDS011;3009;43.224;27.976;2023-08-30T04:16:48;17.30;;;14.90;;
5965;SDS011;3009;43.224;27.976;2023-08-30T04:19:16;19.23;;;15.77;;
5965;SDS011;3009;43.224;27.976;2023-08-30T04:21:45;21.53;;;16.90;;
5965;SDS011;3009;43.224;27.976;2023-08-30T04:24:13;17.50;;;15.60;;
5965;SDS011;3009;43.224;27.976;2023-08-30T04:26:42;16.23;;;14.83;;
5965;SDS011;3009;43.224;27.976;2023-08-30T04:29:12;18.87;;;15.50;;
5965;SDS011;3009;43.224;27.976;2023-08-30T04:31:40;21.47;;;15.90;;
5965;SDS011;3009;43.224;27.976;2023-08-30T04:34:11;21.07;;;16.17;;
5965;SDS011;3009;43.224;27.976;2023-08-30T04:36:39;19.53;;;16.17;;
5965;SDS011;3009;43.224;27.976;2023-08-30T04:39:07;17.23;;;15.00;;
5965;SDS011;3009;43.224;27.976;2023-08-30T04:41:36;17.07;;;14.43;;
5965;SDS011;3009;43.224;27.976;2023-08-30T04:44:05;15.93;;;14.03;;
5965;SDS011;3009;43.224;27.976;2023-08-30T04:46:35;16.73;;;14.00;;
5965;SDS011;3009;43.224;27.976;2023-08-30T04:49:03;14.80;;;13.23;;
5965;SDS011;3009;43.224;27.976;2023-08-30T04:51:32;15.40;;;11.20;;
5965;SDS011;3009;43.224;27.976;2023-08-30T04:54:00;16.50;;;10.63;;
5965;SDS011;3009;43.224;27.976;2023-08-30T04:56:29;12.03;;;11.03;;
5965;SDS011;3009;43.224;27.976;2023-08-30T04:58:57;15.13;;;11.10;;
5965;SDS011;3009;43.224;27.976;2023-08-30T05:01:26;12.73;;;10.67;;
5965;SDS011;3009;43.224;27.976;2023-08-30T05:03:56;13.47;;;11.37;;
5965;SDS011;3009;43.224;27.976;2023-08-30T05:06:24;14.73;;;10.73;;
5965;SDS011;3009;43.224;27.976;2023-08-30T05:08:53;11.80;;;10.60;;
5965;SDS011;3009;43.224;27.976;2023-08-30T05:11:22;17.50;;;10.63;;
5965;SDS011;3009;43.224;27.976;2023-08-30T05:13:50;13.77;;;10.37;;
5965;SDS011;3009;43.224;27.976;2023-08-30T05:16:19;12.13;;;10.20;;
5965;SDS011;3009;43.224;27.976;2023-08-30T05:18:47;53.10;;;12.97;;
5965;SDS011;3009;43.224;27.976;2023-08-30T05:21:17;19.53;;;9.47;;
5965;SDS011;3009;43.224;27.976;2023-08-30T05:23:46;14.73;;;9.33;;
5965;SDS011;3009;43.224;27.976;2023-08-30T05:26:14;11.77;;;10.57;;
5965;SDS011;3009;43.224;27.976;2023-08-30T05:28:43;14.77;;;10.47;;
5965;SDS011;3009;43.224;27.976;2023-08-30T05:31:11;11.13;;;9.93;;
5965;SDS011;3009;43.224;27.976;2023-08-30T05:33:40;17.20;;;11.30;;
5965;SDS011;3009;43.224;27.976;2023-08-30T05:36:08;16.97;;;11.77;;
5965;SDS011;3009;43.224;27.976;2023-08-30T05:38:38;16.03;;;10.50;;
5965;SDS011;3009;43.224;27.976;2023-08-30T05:41:07;16.57;;;10.93;;
5965;SDS011;3009;43.224;27.976;2023-08-30T05:43:36;11.57;;;10.47;;
5965;SDS011;3009;43.224;27.976;2023-08-30T05:46:04;12.50;;;11.20;;
5965;SDS011;3009;43.224;27.976;2023-08-30T05:48:39;19.10;;;10.57;;
5965;SDS011;3009;43.224;27.976;2023-08-30T05:51:07;20.10;;;10.57;;
5965;SDS011;3009;43.224;27.976;2023-08-30T05:53:36;13.93;;;10.77;;
5965;SDS011;3009;43.224;27.976;2023-08-30T05:56:06;22.30;;;10.90;;
5965;SDS011;3009;43.224;27.976;2023-08-30T05:58:34;29.47;;;11.40;;
5965;SDS011;3009;43.224;27.976;2023-08-30T06:01:04;10.93;;;9.80;;
5965;SDS011;3009;43.224;27.976;2023-08-30T06:03:35;13.03;;;9.67;;
5965;SDS011;3009;43.224;27.976;2023-08-30T06:06:04;12.23;;;10.87;;
5965;SDS011;3009;43.224;27.976;2023-08-30T06:08:33;15.23;;;10.40;;
5965;SDS011;3009;43.224;27.976;2023-08-30T06:11:01;11.27;;;9.97;;
5965;SDS011;3009;43.224;27.976;2023-08-30T06:13:31;14.97;;;10.83;;
5965;SDS011;3009;43.224;27.976;2023-08-30T06:15:59;12.37;;;10.53;;
5965;SDS011;3009;43.224;27.976;2023-08-30T06:18:29;13.70;;;10.20;;
5965;SDS011;3009;43.224;27.976;2023-08-30T06:20:59;15.57;;;10.07;;
5965;SDS011;3009;43.224;27.976;2023-08-30T06:23:27;13.40;;;9.67;;
5965;SDS011;3009;43.224;27.976;2023-08-30T06:25:56;22.40;;;11.00;;
5965;SDS011;3009;43.224;27.976;2023-08-30T06:28:25;19.90;;;10.73;;
5965;SDS011;3009;43.224;27.976;2023-08-30T06:30:54;18.40;;;10.30;;
5965;SDS011;3009;43.224;27.976;2023-08-30T06:33:23;15.40;;;11.60;;
5965;SDS011;3009;43.224;27.976;2023-08-30T06:35:52;11.87;;;10.60;;
5965;SDS011;3009;43.224;27.976;2023-08-30T06:38:22;17.07;;;10.53;;
5965;SDS011;3009;43.224;27.976;2023-08-30T06:40:51;11.13;;;10.00;;
5965;SDS011;3009;43.224;27.976;2023-08-30T06:43:20;14.63;;;9.60;;
5965;SDS011;3009;43.224;27.976;2023-08-30T06:45:48;12.40;;;9.63;;
5965;SDS011;3009;43.224;27.976;2023-08-30T06:48:18;12.93;;;9.53;;
5965;SDS011;3009;43.224;27.976;2023-08-30T06:50:47;17.10;;;10.40;;
5965;SDS011;3009;43.224;27.976;2023-08-30T06:53:15;13.20;;;9.50;;
5965;SDS011;3009;43.224;27.976;2023-08-30T06:55:44;14.00;;;10.13;;
5965;SDS011;3009;43.224;27.976;2023-08-30T06:58:14;14.07;;;9.00;;
5965;SDS011;3009;43.224;27.976;2023-08-30T07:00:44;13.23;;;9.23;;
5965;SDS011;3009;43.224;27.976;2023-08-30T07:03:12;10.47;;;9.27;;
5965;SDS011;3009;43.224;27.976;2023-08-30T07:05:42;9.10;;;8.20;;
5965;SDS011;3009;43.224;27.976;2023-08-30T07:08:11;11.87;;;9.90;;
5965;SDS011;3009;43.224;27.976;2023-08-30T07:10:40;14.30;;;9.87;;
5965;SDS011;3009;43.224;27.976;2023-08-30T07:13:08;18.03;;;9.43;;
5965;SDS011;3009;43.224;27.976;2023-08-30T07:15:38;18.13;;;9.90;;
5965;SDS011;3009;43.224;27.976;2023-08-30T07:18:07;11.70;;;10.50;;
5965;SDS011;3009;43.224;27.976;2023-08-30T07:20:38;14.20;;;9.77;;
5965;SDS011;3009;43.224;27.976;2023-08-30T07:23:08;15.27;;;9.60;;
5965;SDS011;3009;43.224;27.976;2023-08-30T07:25:37;10.20;;;9.10;;
5965;SDS011;3009;43.224;27.976;2023-08-30T07:28:06;10.67;;;9.77;;
5965;SDS011;3009;43.224;27.976;2023-08-30T07:30:36;15.40;;;11.20;;
5965;SDS011;3009;43.224;27.976;2023-08-30T07:33:05;12.47;;;11.23;;
5965;SDS011;3009;43.224;27.976;2023-08-30T07:35:33;10.40;;;9.50;;
5965;SDS011;3009;43.224;27.976;2023-08-30T07:38:01;14.73;;;10.00;;
5965;SDS011;3009;43.224;27.976;2023-08-30T07:40:31;19.53;;;10.57;;
5965;SDS011;3009;43.224;27.976;2023-08-30T07:43:00;13.07;;;10.50;;
5965;SDS011;3009;43.224;27.976;2023-08-30T07:45:28;14.00;;;10.37;;
5965;SDS011;3009;43.224;27.976;2023-08-30T07:47:57;19.47;;;11.33;;
5965;SDS011;3009;43.224;27.976;2023-08-30T07:50:25;19.93;;;11.40;;
5965;SDS011;3009;43.224;27.976;2023-08-30T07:52:54;15.67;;;9.80;;
5965;SDS011;3009;43.224;27.976;2023-08-30T07:55:22;15.13;;;10.80;;
5965;SDS011;3009;43.224;27.976;2023-08-30T07:57:52;17.13;;;13.43;;
5965;SDS011;3009;43.224;27.976;2023-08-30T08:00:21;12.90;;;10.63;;
5965;SDS011;3009;43.224;27.976;2023-08-30T08:02:50;12.50;;;11.20;;
5965;SDS011;3009;43.224;27.976;2023-08-30T08:05:18;14.40;;;10.80;;
5965;SDS011;3009;43.224;27.976;2023-08-30T08:07:49;13.27;;;11.20;;
5965;SDS011;3009;43.224;27.976;2023-08-30T08:10:20;18.10;;;10.40;;
5965;SDS011;3009;43.224;27.976;2023-08-30T08:12:48;11.43;;;10.50;;
5965;SDS011;3009;43.224;27.976;2023-08-30T08:15:19;13.83;;;10.83;;
5965;SDS011;3009;43.224;27.976;2023-08-30T08:17:47;14.10;;;11.47;;
5965;SDS011;3009;43.224;27.976;2023-08-30T08:20:16;13.00;;;10.80;;
5965;SDS011;3009;43.224;27.976;2023-08-30T08:22:44;11.63;;;10.23;;
5965;SDS011;3009;43.224;27.976;2023-08-30T08:25:13;23.03;;;11.23;;
5965;SDS011;3009;43.224;27.976;2023-08-30T08:27:42;14.97;;;10.63;;
5965;SDS011;3009;43.224;27.976;2023-08-30T08:30:11;14.17;;;11.03;;
5965;SDS011;3009;43.224;27.976;2023-08-30T08:32:42;12.17;;;10.63;;
5965;SDS011;3009;43.224;27.976;2023-08-30T08:35:10;18.20;;;11.53;;
5965;SDS011;3009;43.224;27.976;2023-08-30T08:37:39;19.27;;;10.47;;
5965;SDS011;3009;43.224;27.976;2023-08-30T08:40:08;16.13;;;11.00;;
5965;SDS011;3009;43.224;27.976;2023-08-30T08:42:37;23.27;;;10.37;;
5965;SDS011;3009;43.224;27.976;2023-08-30T08:45:06;22.73;;;9.83;;
5965;SDS011;3009;43.224;27.976;2023-08-30T08:47:37;14.77;;;10.13;;
5965;SDS011;3009;43.224;27.976;2023-08-30T08:50:08;15.03;;;10.57;;
5965;SDS011;3009;43.224;27.976;2023-08-30T08:52:37;14.67;;;10.20;;
5965;SDS011;3009;43.224;27.976;2023-08-30T08:55:25;12.43;;;9.57;;
5965;SDS011;3009;43.224;27.976;2023-08-30T08:57:57;13.97;;;9.70;;
5965;SDS011;3009;43.224;27.976;2023-08-30T09:00:26;15.47;;;10.13;;
5965;SDS011;3009;43.224;27.976;2023-08-30T09:02:58;16.03;;;10.83;;
5965;SDS011;3009;43.224;27.976;2023-08-30T09:05:28;14.63;;;10.63;;
5965;SDS011;3009;43.224;27.976;2023-08-30T09:07:58;11.17;;;9.60;;
5965;SDS011;3009;43.224;27.976;2023-08-30T09:10:29;16.53;;;10.53;;
5965;SDS011;3009;43.224;27.976;2023-08-30T09:12:59;17.93;;;9.43;;
5965;SDS011;3009;43.224;27.976;2023-08-30T09:15:31;19.27;;;9.83;;
5965;SDS011;3009;43.224;27.976;2023-08-30T09:18:00;14.67;;;9.70;;
5965;SDS011;3009;43.224;27.976;2023-08-30T09:20:30;15.33;;;9.13;;
5965;SDS011;3009;43.224;27.976;2023-08-30T09:22:58;27.50;;;9.93;;
5965;SDS011;3009;43.224;27.976;2023-08-30T09:25:27;12.50;;;9.90;;
5965;SDS011;3009;43.224;27.976;2023-08-30T09:27:57;14.23;;;9.70;;
5965;SDS011;3009;43.224;27.976;2023-08-30T09:30:26;11.70;;;9.50;;
5965;SDS011;3009;43.224;27.976;2023-08-30T09:33:00;29.73;;;10.53;;
5965;SDS011;3009;43.224;27.976;2023-08-30T09:35:32;10.77;;;9.23;;
5965;SDS011;3009;43.224;27.976;2023-08-30T09:38:07;16.40;;;10.07;;
5965;SDS011;3009;43.224;27.976;2023-08-30T09:40:44;16.03;;;9.20;;
5965;SDS011;3009;43.224;27.976;2023-08-30T09:43:13;17.97;;;9.23;;
5965;SDS011;3009;43.224;27.976;2023-08-30T09:45:46;11.10;;;8.40;;
5965;SDS011;3009;43.224;27.976;2023-08-30T09:48:15;16.00;;;9.50;;
5965;SDS011;3009;43.224;27.976;2023-08-30T09:50:46;10.07;;;8.40;;
5965;SDS011;3009;43.224;27.976;2023-08-30T09:53:18;18.10;;;9.10;;
5965;SDS011;3009;43.224;27.976;2023-08-30T09:55:53;17.60;;;9.10;;
5965;SDS011;3009;43.224;27.976;2023-08-30T09:58:22;19.23;;;8.07;;
5965;SDS011;3009;43.224;27.976;2023-08-30T10:00:53;20.87;;;8.73;;
5965;SDS011;3009;43.224;27.976;2023-08-30T10:03:22;15.90;;;8.87;;
5965;SDS011;3009;43.224;27.976;2023-08-30T10:05:59;13.93;;;8.47;;
5965;SDS011;3009;43.224;27.976;2023-08-30T10:08:32;12.93;;;8.70;;
5965;SDS011;3009;43.224;27.976;2023-08-30T10:11:03;13.37;;;8.90;;
5965;SDS011;3009;43.224;27.976;2023-08-30T10:13:33;467.90;;;41.70;;
5965;SDS011;3009;43.224;27.976;2023-08-30T10:16:06;259.10;;;26.20;;
5965;SDS011;3009;43.224;27.976;2023-08-30T10:18:40;14.17;;;7.97;;
5965;SDS011;3009;43.224;27.976;2023-08-30T10:21:26;23.67;;;9.60;;
5965;SDS011;3009;43.224;27.976;2023-08-30T10:23:57;58.50;;;11.90;;
5965;SDS011;3009;43.224;27.976;2023-08-30T10:26:29;300.90;;;26.53;;
5965;SDS011;3009;43.224;27.976;2023-08-30T10:28:59;98.50;;;13.63;;
5965;SDS011;3009;43.224;27.976;2023-08-30T10:31:29;22.93;;;9.37;;
5965;SDS011;3009;43.224;27.976;2023-08-30T10:33:58;11.37;;;8.00;;
5965;SDS011;3009;43.224;27.976;2023-08-30T10:36:28;14.57;;;8.07;;
5965;SDS011;3009;43.224;27.976;2023-08-30T10:38:56;8.43;;;7.70;;
5965;SDS011;3009;43.224;27.976;2023-08-30T10:41:25;9.03;;;7.33;;
5965;SDS011;3009;43.224;27.976;2023-08-30T10:43:55;12.00;;;8.03;;
5965;SDS011;3009;43.224;27.976;2023-08-30T10:46:31;10.67;;;8.83;;
5965;SDS011;3009;43.224;27.976;2023-08-30T10:49:11;10.90;;;7.80;;
5965;SDS011;3009;43.224;27.976;2023-08-30T10:51:43;10.80;;;7.50;;
5965;SDS011;3009;43.224;27.976;2023-08-30T10:54:12;18.63;;;8.87;;
5965;SDS011;3009;43.224;27.976;2023-08-30T10:56:45;11.90;;;8.40;;
5965;SDS011;3009;43.224;27.976;2023-08-30T10:59:16;16.50;;;7.10;;
5965;SDS011;3009;43.224;27.976;2023-08-30T11:01:45;14.53;;;7.87;;
5965;SDS011;3009;43.224;27.976;2023-08-30T11:04:14;9.93;;;7.93;;
5965;SDS011;3009;43.224;27.976;2023-08-30T11:06:45;16.73;;;7.70;;
5965;SDS011;3009;43.224;27.976;2023-08-30T11:09:15;11.93;;;8.10;;
5965;SDS011;3009;43.224;27.976;2023-08-30T11:11:45;17.73;;;8.23;;
5965;SDS011;3009;43.224;27.976;2023-08-30T11:14:16;12.07;;;8.07;;
5965;SDS011;3009;43.224;27.976;2023-08-30T11:16:45;15.93;;;8.73;;
5965;SDS011;3009;43.224;27.976;2023-08-30T11:19:14;10.43;;;7.50;;
5965;SDS011;3009;43.224;27.976;2023-08-30T11:21:42;18.10;;;10.90;;
5965;SDS011;3009;43.224;27.976;2023-08-30T11:24:13;13.70;;;7.90;;
5965;SDS011;3009;43.224;27.976;2023-08-30T11:26:43;12.50;;;7.63;;
5965;SDS011;3009;43.224;27.976;2023-08-30T11:29:11;18.50;;;8.33;;
5965;SDS011;3009;43.224;27.976;2023-08-30T11:31:39;11.83;;;7.63;;
5965;SDS011;3009;43.224;27.976;2023-08-30T11:34:12;14.87;;;8.13;;
5965;SDS011;3009;43.224;27.976;2023-08-30T11:36:40;9.83;;;7.77;;
5965;SDS011;3009;43.224;27.976;2023-08-30T11:39:10;13.10;;;7.90;;
5965;SDS011;3009;43.224;27.976;2023-08-30T11:41:39;14.07;;;7.83;;
5965;SDS011;3009;43.224;27.976;2023-08-30T11:44:08;18.73;;;7.83;;
5965;SDS011;3009;43.224;27.976;2023-08-30T11:46:37;14.67;;;7.60;;
5965;SDS011;3009;43.224;27.976;2023-08-30T11:49:06;18.53;;;9.10;;
5965;SDS011;3009;43.224;27.976;2023-08-30T11:51:35;13.40;;;8.40;;
5965;SDS011;3009;43.224;27.976;2023-08-30T11:54:04;20.97;;;7.60;;
5965;SDS011;3009;43.224;27.976;2023-08-30T11:56:36;22.07;;;8.70;;
5965;SDS011;3009;43.224;27.976;2023-08-30T11:59:04;14.43;;;8.53;;
5965;SDS011;3009;43.224;27.976;2023-08-30T12:01:33;18.93;;;9.43;;
5965;SDS011;3009;43.224;27.976;2023-08-30T12:04:08;12.43;;;8.17;;
5965;SDS011;3009;43.224;27.976;2023-08-30T12:06:37;11.50;;;7.50;;
5965;SDS011;3009;43.224;27.976;2023-08-30T12:09:11;16.10;;;8.33;;
5965;SDS011;3009;43.224;27.976;2023-08-30T12:11:41;18.00;;;8.57;;
5965;SDS011;3009;43.224;27.976;2023-08-30T12:14:10;14.33;;;8.50;;
5965;SDS011;3009;43.224;27.976;2023-08-30T12:16:39;11.60;;;8.13;;
5965;SDS011;3009;43.224;27.976;2023-08-30T12:19:08;13.80;;;8.80;;
5965;SDS011;3009;43.224;27.976;2023-08-30T12:21:40;12.27;;;8.50;;
5965;SDS011;3009;43.224;27.976;2023-08-30T12:24:10;14.80;;;8.17;;
5965;SDS011;3009;43.224;27.976;2023-08-30T12:26:38;9.17;;;8.07;;
5965;SDS011;3009;43.224;27.976;2023-08-30T12:29:08;14.23;;;7.63;;
5965;SDS011;3009;43.224;27.976;2023-08-30T12:31:37;13.23;;;8.60;;
5965;SDS011;3009;43.224;27.976;2023-08-30T12:34:05;12.53;;;8.10;;
5965;SDS011;3009;43.224;27.976;2023-08-30T12:36:34;14.30;;;8.40;;
5965;SDS011;3009;43.224;27.976;2023-08-30T12:39:02;16.37;;;8.30;;
5965;SDS011;3009;43.224;27.976;2023-08-30T12:41:31;14.57;;;8.20;;
5965;SDS011;3009;43.224;27.976;2023-08-30T12:44:01;12.23;;;7.67;;
5965;SDS011;3009;43.224;27.976;2023-08-30T12:46:30;9.73;;;7.40;;
5965;SDS011;3009;43.224;27.976;2023-08-30T12:48:59;10.10;;;7.77;;
5965;SDS011;3009;43.224;27.976;2023-08-30T12:51:27;20.43;;;9.07;;
5965;SDS011;3009;43.224;27.976;2023-08-30T12:53:57;14.70;;;8.07;;
5965;SDS011;3009;43.224;27.976;2023-08-30T12:56:25;13.13;;;8.03;;
5965;SDS011;3009;43.224;27.976;2023-08-30T12:58:54;9.73;;;7.23;;
5965;SDS011;3009;43.224;27.976;2023-08-30T13:01:23;15.93;;;7.70;;
5965;SDS011;3009;43.224;27.976;2023-08-30T13:03:52;20.40;;;8.07;;
5965;SDS011;3009;43.224;27.976;2023-08-30T13:06:21;21.77;;;8.13;;
5965;SDS011;3009;43.224;27.976;2023-08-30T13:08:49;10.20;;;7.90;;
5965;SDS011;3009;43.224;27.976;2023-08-30T13:11:17;13.60;;;7.90;;
5965;SDS011;3009;43.224;27.976;2023-08-30T13:13:46;10.47;;;7.37;;
5965;SDS011;3009;43.224;27.976;2023-08-30T13:16:14;11.50;;;8.23;;
5965;SDS011;3009;43.224;27.976;2023-08-30T13:18:44;13.13;;;7.80;;
5965;SDS011;3009;43.224;27.976;2023-08-30T13:21:12;18.80;;;8.50;;
5965;SDS011;3009;43.224;27.976;2023-08-30T13:23:49;19.53;;;8.43;;
5965;SDS011;3009;43.224;27.976;2023-08-30T13:26:18;17.83;;;9.37;;
5965;SDS011;3009;43.224;27.976;2023-08-30T13:28:46;15.23;;;7.97;;
5965;SDS011;3009;43.224;27.976;2023-08-30T13:31:15;8.93;;;7.67;;
5965;SDS011;3009;43.224;27.976;2023-08-30T13:33:45;10.73;;;7.90;;
5965;SDS011;3009;43.224;27.976;2023-08-30T13:36:13;11.67;;;6.83;;
5965;SDS011;3009;43.224;27.976;2023-08-30T13:38:42;13.33;;;7.20;;
5965;SDS011;3009;43.224;27.976;2023-08-30T13:41:10;18.53;;;7.60;;
5965;SDS011;3009;43.224;27.976;2023-08-30T13:43:38;14.23;;;7.87;;
5965;SDS011;3009;43.224;27.976;2023-08-30T13:46:07;16.50;;;6.80;;
5965;SDS011;3009;43.224;27.976;2023-08-30T13:48:35;19.10;;;8.10;;
5965;SDS011;3009;43.224;27.976;2023-08-30T13:51:05;21.83;;;8.63;;
5965;SDS011;3009;43.224;27.976;2023-08-30T13:53:34;17.47;;;7.50;;
5965;SDS011;3009;43.224;27.976;2023-08-30T13:56:02;15.00;;;7.70;;
5965;SDS011;3009;43.224;27.976;2023-08-30T13:58:31;9.10;;;7.67;;
5965;SDS011;3009;43.224;27.976;2023-08-30T14:00:59;17.20;;;9.00;;
5965;SDS011;3009;43.224;27.976;2023-08-30T14:03:28;14.90;;;8.27;;
5965;SDS011;3009;43.224;27.976;2023-08-30T14:05:56;12.97;;;7.13;;
5965;SDS011;3009;43.224;27.976;2023-08-30T14:08:26;14.30;;;7.00;;
5965;SDS011;3009;43.224;27.976;2023-08-30T14:10:55;27.10;;;9.50;;
5965;SDS011;3009;43.224;27.976;2023-08-30T14:13:23;13.53;;;8.20;;
5965;SDS011;3009;43.224;27.976;2023-08-30T14:15:54;13.10;;;8.17;;
5965;SDS011;3009;43.224;27.976;2023-08-30T14:18:23;21.60;;;7.97;;
5965;SDS011;3009;43.224;27.976;2023-08-30T14:20:54;13.63;;;8.43;;
5965;SDS011;3009;43.224;27.976;2023-08-30T14:23:24;14.37;;;7.30;;
5965;SDS011;3009;43.224;27.976;2023-08-30T14:25:57;10.03;;;7.70;;
5965;SDS011;3009;43.224;27.976;2023-08-30T14:28:25;19.83;;;7.37;;
5965;SDS011;3009;43.224;27.976;2023-08-30T14:30:54;27.57;;;8.80;;
5965;SDS011;3009;43.224;27.976;2023-08-30T14:33:23;15.30;;;8.27;;
5965;SDS011;3009;43.224;27.976;2023-08-30T14:35:52;14.30;;;8.33;;
5965;SDS011;3009;43.224;27.976;2023-08-30T14:38:20;16.10;;;8.13;;
5965;SDS011;3009;43.224;27.976;2023-08-30T14:40:55;14.77;;;7.57;;
5965;SDS011;3009;43.224;27.976;2023-08-30T14:43:24;13.90;;;7.77;;
5965;SDS011;3009;43.224;27.976;2023-08-30T14:45:58;13.20;;;7.50;;
5965;SDS011;3009;43.224;27.976;2023-08-30T14:48:36;19.13;;;8.63;;
5965;SDS011;3009;43.224;27.976;2023-08-30T14:51:05;13.43;;;8.50;;
5965;SDS011;3009;43.224;27.976;2023-08-30T14:53:34;19.00;;;9.13;;
5965;SDS011;3009;43.224;27.976;2023-08-30T14:56:04;10.83;;;8.10;;